createdAt,value
2023-02-24T00:01:16.498Z,7.93
2023-02-24T00:03:42.797Z,7.54
2023-02-24T00:06:09.070Z,7.76
2023-02-24T00:08:35.333Z,7.53
2023-02-24T00:11:01.607Z,7.53
2023-02-24T00:13:27.857Z,7.43
2023-02-24T00:15:54.113Z,7.81
2023-02-24T00:18:20.360Z,8.17
2023-02-24T00:20:46.629Z,8.13
2023-02-24T00:23:12.875Z,8.61
2023-02-24T00:25:39.111Z,8.96
2023-02-24T00:28:05.358Z,9.11
2023-02-24T00:30:31.625Z,9.30
2023-02-24T00:32:57.918Z,9.82
2023-02-24T00:35:24.171Z,9.62
2023-02-24T00:37:50.429Z,9.45
2023-02-24T00:40:16.681Z,9.42
2023-02-24T00:42:42.928Z,8.43
2023-02-24T00:45:09.170Z,8.28
2023-02-24T00:47:35.405Z,7.73
2023-02-24T00:50:01.693Z,7.81
2023-02-24T00:52:27.977Z,7.67
2023-02-24T00:54:54.245Z,7.89
2023-02-24T00:57:20.530Z,8.30
2023-02-24T00:59:46.799Z,8.67
2023-02-24T01:02:13.058Z,8.84
2023-02-24T01:04:39.331Z,9.53
2023-02-24T01:07:05.582Z,9.38
2023-02-24T01:09:31.851Z,9.44
2023-02-24T01:11:58.164Z,9.65
2023-02-24T01:14:24.455Z,9.66
2023-02-24T01:16:50.712Z,9.38
2023-02-24T01:19:16.961Z,9.13
2023-02-24T01:21:43.205Z,9.01
2023-02-24T01:24:09.467Z,9.62
2023-02-24T01:26:35.730Z,9.17
2023-02-24T01:29:02.005Z,9.61
2023-02-24T01:31:28.363Z,10.05
2023-02-24T01:33:54.770Z,10.51
2023-02-24T01:36:21.062Z,10.49
2023-02-24T01:38:47.351Z,10.38
2023-02-24T01:41:13.593Z,9.76
2023-02-24T01:43:39.847Z,9.54
2023-02-24T01:46:06.145Z,9.96
2023-02-24T01:48:32.477Z,9.90
2023-02-24T01:50:58.754Z,9.82
2023-02-24T01:53:25.023Z,9.88
2023-02-24T01:55:51.291Z,10.19
2023-02-24T01:58:17.558Z,10.25
2023-02-24T02:00:43.913Z,10.51
2023-02-24T02:03:10.271Z,10.92
2023-02-24T02:05:36.514Z,10.86
2023-02-24T02:08:02.821Z,10.57
2023-02-24T02:10:29.103Z,11.13
2023-02-24T02:12:55.386Z,10.91
2023-02-24T02:15:21.644Z,10.63
2023-02-24T02:17:47.912Z,10.87
2023-02-24T02:20:14.165Z,11.15
2023-02-24T02:22:40.420Z,11.13
2023-02-24T02:25:06.682Z,10.83
2023-02-24T02:27:32.958Z,10.48
2023-02-24T02:29:59.229Z,10.58
2023-02-24T02:32:25.586Z,10.68
2023-02-24T02:34:51.895Z,10.77
2023-02-24T02:37:18.158Z,10.85
2023-02-24T02:39:44.436Z,11.37
2023-02-24T02:42:10.695Z,11.08
2023-02-24T02:44:36.940Z,9.48
2023-02-24T02:47:03.201Z,8.98
2023-02-24T02:49:29.447Z,9.15
2023-02-24T02:51:55.696Z,9.61
2023-02-24T02:54:21.963Z,9.32
2023-02-24T02:56:48.217Z,8.88
2023-02-24T02:59:14.462Z,9.46
2023-02-24T03:01:40.765Z,9.59
2023-02-24T03:04:07.038Z,10.17
2023-02-24T03:06:33.311Z,10.57
2023-02-24T03:08:59.562Z,10.50
2023-02-24T03:11:25.834Z,11.03
2023-02-24T03:13:52.110Z,10.56
2023-02-24T03:16:18.406Z,10.70
2023-02-24T03:18:44.672Z,10.61
2023-02-24T03:21:10.946Z,10.75
2023-02-24T03:23:37.190Z,10.37
2023-02-24T03:26:03.471Z,10.68
2023-02-24T03:28:29.737Z,10.43
2023-02-24T03:30:55.997Z,10.62
2023-02-24T03:33:22.288Z,11.20
2023-02-24T03:35:48.531Z,11.57
2023-02-24T03:38:14.797Z,11.12
2023-02-24T03:40:41.042Z,11.59
2023-02-24T03:43:07.301Z,11.50
2023-02-24T03:45:33.562Z,11.75
2023-02-24T03:47:59.835Z,12.13
2023-02-24T03:50:26.106Z,12.40
2023-02-24T03:52:52.379Z,12.98
2023-02-24T03:55:18.673Z,12.73
2023-02-24T03:57:44.950Z,12.89
2023-02-24T04:00:11.190Z,12.52
2023-02-24T04:02:37.474Z,12.86
2023-02-24T04:05:03.812Z,12.77
2023-02-24T04:07:30.124Z,13.00
2023-02-24T04:09:56.387Z,13.27
2023-02-24T04:12:22.682Z,13.20
2023-02-24T04:14:48.971Z,13.44
2023-02-24T04:17:15.231Z,13.97
2023-02-24T04:19:41.481Z,13.39
2023-02-24T04:22:07.764Z,14.53
2023-02-24T04:24:34.048Z,15.07
2023-02-24T04:27:00.316Z,15.06
2023-02-24T04:29:26.579Z,15.14
2023-02-24T04:31:53.037Z,15.75
2023-02-24T04:34:19.405Z,15.63
2023-02-24T04:36:45.673Z,15.40
2023-02-24T04:39:11.940Z,15.66
2023-02-24T04:41:38.197Z,15.41
2023-02-24T04:44:04.468Z,16.08
2023-02-24T04:46:30.753Z,16.35
2023-02-24T04:48:57.198Z,16.27
2023-02-24T04:51:23.629Z,16.27
2023-02-24T04:53:49.960Z,16.09
2023-02-24T04:56:16.211Z,16.62
2023-02-24T04:58:42.468Z,16.54
2023-02-24T05:01:08.739Z,17.88
2023-02-24T05:03:34.993Z,18.46
2023-02-24T05:06:01.322Z,16.64
2023-02-24T05:08:27.571Z,15.81
2023-02-24T05:10:53.851Z,16.01
2023-02-24T05:13:20.119Z,16.00
2023-02-24T05:15:46.440Z,16.09
2023-02-24T05:18:12.740Z,16.50
2023-02-24T05:20:39.022Z,15.76
2023-02-24T05:23:05.294Z,15.74
2023-02-24T05:25:31.579Z,14.95
2023-02-24T05:27:57.847Z,14.54
2023-02-24T05:30:24.139Z,15.03
2023-02-24T05:32:50.504Z,17.48
2023-02-24T05:35:16.800Z,19.65
2023-02-24T05:37:43.056Z,18.71
2023-02-24T05:40:09.361Z,19.13
2023-02-24T05:42:35.615Z,18.52
2023-02-24T05:45:01.876Z,17.28
2023-02-24T05:47:28.148Z,16.61
2023-02-24T05:49:54.410Z,18.04
2023-02-24T05:52:20.661Z,18.24
2023-02-24T05:54:46.928Z,18.71
2023-02-24T05:57:13.208Z,18.62
2023-02-24T05:59:39.473Z,16.64
2023-02-24T06:02:05.764Z,16.22
2023-02-24T06:04:32.092Z,16.83
2023-02-24T06:06:58.338Z,17.79
2023-02-24T06:09:24.603Z,21.25
2023-02-24T06:11:51.008Z,24.14
2023-02-24T06:14:17.290Z,22.61
2023-02-24T06:16:43.627Z,19.42
2023-02-24T06:19:09.992Z,19.44
2023-02-24T06:21:36.262Z,19.41
2023-02-24T06:24:02.550Z,18.49
2023-02-24T06:26:28.803Z,18.30
2023-02-24T06:28:55.058Z,16.52
2023-02-24T06:31:21.736Z,17.10
2023-02-24T06:33:48.190Z,18.32
2023-02-24T06:36:14.490Z,18.79
2023-02-24T06:38:40.772Z,17.48
2023-02-24T06:41:07.039Z,17.67
2023-02-24T06:43:33.315Z,15.33
2023-02-24T06:45:59.674Z,13.53
2023-02-24T06:48:25.942Z,15.28
2023-02-24T06:50:52.198Z,14.76
2023-02-24T06:53:18.480Z,14.84
2023-02-24T06:55:44.742Z,14.66
2023-02-24T06:58:11.006Z,14.40
2023-02-24T07:00:37.433Z,14.67
2023-02-24T07:03:03.722Z,13.72
2023-02-24T07:05:29.993Z,14.27
2023-02-24T07:07:56.249Z,15.36
2023-02-24T07:10:22.526Z,15.37
2023-02-24T07:12:48.794Z,15.68
2023-02-24T07:15:15.090Z,14.79
2023-02-24T07:17:41.342Z,15.38
2023-02-24T07:20:07.624Z,15.11
2023-02-24T07:22:33.884Z,15.36
2023-02-24T07:25:00.161Z,15.45
2023-02-24T07:27:26.429Z,16.58
2023-02-24T07:29:53.706Z,16.57
2023-02-24T07:32:20.159Z,16.30
2023-02-24T07:34:46.441Z,17.01
2023-02-24T07:37:12.719Z,17.34
2023-02-24T07:39:38.977Z,16.57
2023-02-24T07:42:05.267Z,17.19
2023-02-24T07:44:31.556Z,18.01
2023-02-24T07:46:57.814Z,18.27
2023-02-24T07:49:24.066Z,18.01
2023-02-24T07:51:50.324Z,18.18
2023-02-24T07:54:16.574Z,13.20
2023-02-24T07:56:42.851Z,14.67
2023-02-24T07:59:09.106Z,17.52
2023-02-24T08:01:35.354Z,18.37
2023-02-24T08:04:01.629Z,19.07
2023-02-24T08:06:27.903Z,19.52
2023-02-24T08:08:54.297Z,18.93
2023-02-24T08:11:20.854Z,19.04
2023-02-24T08:13:47.274Z,18.91
2023-02-24T08:16:13.580Z,19.06
2023-02-24T08:18:39.856Z,19.43
2023-02-24T08:21:06.130Z,19.49
2023-02-24T08:23:32.414Z,18.99
2023-02-24T08:25:58.704Z,19.28
2023-02-24T08:28:24.975Z,18.72
2023-02-24T08:30:51.331Z,19.67
2023-02-24T08:33:17.623Z,20.70
2023-02-24T08:35:43.893Z,21.64
2023-02-24T08:38:10.159Z,21.19
2023-02-24T08:40:36.413Z,22.59
2023-02-24T08:43:02.686Z,21.85
2023-02-24T08:45:28.932Z,22.03
2023-02-24T08:47:55.182Z,21.97
2023-02-24T08:50:21.442Z,22.55
2023-02-24T08:52:47.707Z,24.29
2023-02-24T08:55:13.954Z,23.28
2023-02-24T08:57:40.228Z,22.17
2023-02-24T09:00:06.490Z,21.37
2023-02-24T09:02:32.755Z,20.85
2023-02-24T09:04:59.105Z,21.58
2023-02-24T09:07:25.386Z,22.01
2023-02-24T09:09:51.645Z,22.82
2023-02-24T09:12:17.899Z,22.16
2023-02-24T09:14:44.166Z,21.19
2023-02-24T09:17:10.483Z,20.84
2023-02-24T09:19:36.756Z,21.23
2023-02-24T09:22:07.806Z,21.34
2023-02-24T09:24:36.554Z,21.48
2023-02-24T09:27:02.839Z,20.48
2023-02-24T09:29:29.122Z,21.32
2023-02-24T09:31:55.597Z,21.10
2023-02-24T09:34:22.049Z,20.99
2023-02-24T09:36:48.315Z,22.20
2023-02-24T09:39:14.737Z,20.84
2023-02-24T09:41:41.117Z,21.40
2023-02-24T09:44:07.691Z,20.70
2023-02-24T09:46:34.328Z,20.39
2023-02-24T09:49:00.711Z,21.11
2023-02-24T09:51:26.965Z,20.82
2023-02-24T09:53:53.222Z,21.41
2023-02-24T09:56:19.496Z,20.92
2023-02-24T09:58:45.804Z,20.76
2023-02-24T10:01:12.118Z,20.29
2023-02-24T10:03:38.414Z,20.12
2023-02-24T10:06:04.688Z,19.76
2023-02-24T10:08:30.981Z,17.94
2023-02-24T10:10:57.243Z,18.37
2023-02-24T10:13:23.536Z,18.69
2023-02-24T10:15:49.916Z,18.45
2023-02-24T10:18:16.190Z,18.01
2023-02-24T10:20:42.475Z,17.64
2023-02-24T10:23:08.767Z,17.98
2023-02-24T10:25:35.065Z,18.07
2023-02-24T10:28:01.342Z,18.04
2023-02-24T10:30:27.882Z,18.25
2023-02-24T10:32:54.380Z,18.47
2023-02-24T10:35:20.682Z,18.41
2023-02-24T10:37:46.967Z,17.19
2023-02-24T10:40:13.222Z,16.63
2023-02-24T10:42:39.522Z,17.50
2023-02-24T10:45:09.709Z,18.59
2023-02-24T10:47:36.222Z,18.31
2023-02-24T10:50:02.496Z,18.70
2023-02-24T10:52:28.782Z,18.54
2023-02-24T10:54:55.069Z,18.14
2023-02-24T10:57:21.327Z,16.86
2023-02-24T10:59:47.636Z,16.64
2023-02-24T11:02:13.968Z,17.11
2023-02-24T11:04:40.264Z,16.47
2023-02-24T11:07:06.533Z,15.87
2023-02-24T11:09:32.809Z,16.92
2023-02-24T11:11:59.103Z,21.53
2023-02-24T11:14:25.394Z,15.76
2023-02-24T11:16:51.679Z,14.68
2023-02-24T11:19:17.930Z,14.68
2023-02-24T11:21:44.197Z,14.28
2023-02-24T11:24:10.466Z,17.14
2023-02-24T11:26:36.732Z,14.59
2023-02-24T11:29:02.982Z,12.58
2023-02-24T11:31:29.327Z,12.63
2023-02-24T11:33:55.694Z,12.51
2023-02-24T11:36:21.965Z,12.18
2023-02-24T11:38:48.216Z,12.56
2023-02-24T11:41:14.471Z,13.03
2023-02-24T11:43:40.741Z,12.73
2023-02-24T11:46:07.321Z,12.83
2023-02-24T11:48:33.680Z,12.29
2023-02-24T11:50:59.948Z,12.45
2023-02-24T11:53:26.216Z,12.62
2023-02-24T11:55:52.469Z,12.04
2023-02-24T11:58:18.733Z,12.57
2023-02-24T12:00:46.921Z,12.08
2023-02-24T12:03:14.094Z,12.03
2023-02-24T12:05:40.410Z,12.00
2023-02-24T12:08:06.727Z,11.73
2023-02-24T12:10:33.097Z,11.61
2023-02-24T12:12:59.361Z,11.22
2023-02-24T12:15:25.629Z,11.36
2023-02-24T12:17:51.998Z,11.43
2023-02-24T12:20:18.339Z,10.28
2023-02-24T12:22:44.629Z,10.30
2023-02-24T12:25:10.894Z,10.18
2023-02-24T12:27:37.157Z,10.45
2023-02-24T12:30:03.431Z,10.16
2023-02-24T12:32:29.816Z,9.86
2023-02-24T12:34:56.156Z,9.76
2023-02-24T12:37:22.405Z,10.11
2023-02-24T12:39:48.666Z,10.08
2023-02-24T12:42:14.964Z,10.28
2023-02-24T12:44:41.228Z,10.37
2023-02-24T12:47:07.506Z,10.71
2023-02-24T12:49:33.763Z,11.10
2023-02-24T12:52:00.033Z,11.18
2023-02-24T12:54:26.285Z,11.65
2023-02-24T12:56:52.549Z,11.70
2023-02-24T12:59:18.837Z,11.89
2023-02-24T13:01:45.111Z,11.36
2023-02-24T13:04:11.379Z,11.25
2023-02-24T13:06:37.675Z,11.39
2023-02-24T13:09:03.927Z,11.69
2023-02-24T13:11:30.189Z,11.66
2023-02-24T13:13:56.482Z,14.28
2023-02-24T13:16:22.756Z,12.28
2023-02-24T13:18:49.027Z,13.33
2023-02-24T13:21:15.304Z,14.23
2023-02-24T13:23:41.576Z,13.05
2023-02-24T13:26:07.837Z,11.32
2023-02-24T13:28:34.103Z,10.92
2023-02-24T13:31:00.396Z,11.09
2023-02-24T13:33:26.689Z,10.01
2023-02-24T13:35:52.959Z,10.15
2023-02-24T13:38:19.223Z,9.62
2023-02-24T13:40:45.505Z,13.69
2023-02-24T13:43:11.771Z,9.39
2023-02-24T13:45:38.072Z,17.32
2023-02-24T13:48:04.344Z,15.00
2023-02-24T13:50:30.657Z,9.35
2023-02-24T13:52:56.922Z,10.45
2023-02-24T13:55:23.202Z,11.26
2023-02-24T13:57:49.488Z,12.11
2023-02-24T14:00:15.769Z,11.71
2023-02-24T14:02:42.072Z,10.63
2023-02-24T14:05:08.500Z,10.08
2023-02-24T14:07:34.810Z,16.01
2023-02-24T14:10:01.080Z,30.21
2023-02-24T14:12:27.374Z,14.60
2023-02-24T14:14:53.642Z,14.27
2023-02-24T14:17:19.890Z,13.04
2023-02-24T14:19:46.171Z,12.67
2023-02-24T14:22:13.237Z,12.78
2023-02-24T14:24:39.566Z,11.05
2023-02-24T14:27:05.846Z,10.89
2023-02-24T14:29:34.094Z,9.83
2023-02-24T14:32:02.821Z,10.47
2023-02-24T14:34:29.146Z,10.97
2023-02-24T14:36:55.409Z,11.23
2023-02-24T14:39:21.673Z,10.17
2023-02-24T14:41:47.939Z,8.20
2023-02-24T14:44:14.207Z,27.65
2023-02-24T14:46:40.513Z,18.50
2023-02-24T14:49:06.858Z,11.38
2023-02-24T14:51:33.128Z,11.02
2023-02-24T14:53:59.403Z,9.85
2023-02-24T14:56:25.763Z,8.64
2023-02-24T14:58:52.142Z,9.34
2023-02-24T15:01:18.462Z,9.57
2023-02-24T15:03:44.727Z,9.10
2023-02-24T15:06:10.989Z,9.64
2023-02-24T15:08:37.258Z,9.32
2023-02-24T15:11:03.510Z,8.93
2023-02-24T15:13:29.801Z,8.82
2023-02-24T15:15:56.194Z,9.52
2023-02-24T15:18:22.462Z,9.36
2023-02-24T15:20:48.730Z,9.37
2023-02-24T15:23:14.993Z,9.77
2023-02-24T15:25:43.012Z,9.78
2023-02-24T15:28:09.459Z,10.79
2023-02-24T15:30:35.769Z,9.99
2023-02-24T15:33:02.192Z,10.35
2023-02-24T15:35:28.494Z,10.10
2023-02-24T15:37:54.758Z,10.21
2023-02-24T15:40:21.030Z,11.12
2023-02-24T15:42:47.288Z,10.87
2023-02-24T15:45:13.558Z,10.59
2023-02-24T15:47:39.827Z,10.39
2023-02-24T15:50:06.076Z,9.98
2023-02-24T15:52:32.323Z,9.97
2023-02-24T15:54:58.602Z,9.56
2023-02-24T15:57:24.917Z,8.47
2023-02-24T15:59:51.196Z,8.35
2023-02-24T16:02:17.460Z,7.89
2023-02-24T16:04:43.725Z,7.84
2023-02-24T16:07:09.976Z,8.07
2023-02-24T16:09:36.251Z,7.74
2023-02-24T16:12:02.516Z,8.28
2023-02-24T16:14:28.798Z,7.80
2023-02-24T16:16:55.095Z,7.79
2023-02-24T16:19:21.353Z,8.49
2023-02-24T16:21:47.602Z,8.45
2023-02-24T16:24:14.180Z,8.69
2023-02-24T16:26:40.491Z,8.58
2023-02-24T16:29:06.753Z,9.13
2023-02-24T16:31:33.157Z,9.28
2023-02-24T16:33:59.741Z,9.66
2023-02-24T16:36:26.778Z,9.66
2023-02-24T16:38:53.294Z,10.13
2023-02-24T16:41:19.552Z,9.71
2023-02-24T16:43:45.866Z,10.30
2023-02-24T16:46:12.216Z,10.30
2023-02-24T16:48:38.583Z,10.02
2023-02-24T16:51:04.849Z,10.77
2023-02-24T16:53:31.128Z,11.02
2023-02-24T16:55:57.400Z,11.10
2023-02-24T16:58:23.682Z,11.32
2023-02-24T17:00:50.058Z,11.22
2023-02-24T17:03:16.482Z,11.02
2023-02-24T17:05:43.930Z,10.96
2023-02-24T17:08:10.586Z,11.20
2023-02-24T17:10:36.846Z,11.49
2023-02-24T17:13:03.107Z,11.37
2023-02-24T17:15:29.374Z,11.45
2023-02-24T17:17:55.665Z,11.47
2023-02-24T17:20:21.917Z,12.21
2023-02-24T17:22:48.162Z,12.29
2023-02-24T17:25:14.443Z,12.55
2023-02-24T17:27:40.748Z,12.28
2023-02-24T17:30:07.026Z,12.63
2023-02-24T17:32:33.341Z,11.52
2023-02-24T17:34:59.604Z,10.62
2023-02-24T17:37:25.874Z,10.91
2023-02-24T17:39:52.127Z,11.24
2023-02-24T17:42:18.394Z,11.65
2023-02-24T17:44:44.654Z,13.67
2023-02-24T17:47:10.907Z,13.17
2023-02-24T17:49:37.161Z,11.11
2023-02-24T17:52:06.124Z,10.43
2023-02-24T17:54:32.542Z,10.31
2023-02-24T17:56:58.814Z,10.59
2023-02-24T17:59:25.197Z,10.18
2023-02-24T18:01:51.485Z,10.71
2023-02-24T18:04:17.795Z,9.78
2023-02-24T18:06:44.050Z,8.75
2023-02-24T18:09:10.315Z,7.81
2023-02-24T18:11:36.572Z,7.16
2023-02-24T18:14:02.832Z,7.50
2023-02-24T18:16:29.141Z,7.25
2023-02-24T18:18:55.429Z,6.74
2023-02-24T18:21:21.686Z,6.29
2023-02-24T18:23:47.944Z,6.39
2023-02-24T18:26:14.213Z,6.54
2023-02-24T18:28:40.475Z,6.16
2023-02-24T18:31:06.832Z,5.93
2023-02-24T18:33:33.257Z,5.62
2023-02-24T18:35:59.547Z,5.53
2023-02-24T18:38:25.826Z,5.32
2023-02-24T18:40:52.090Z,5.32
2023-02-24T18:43:18.358Z,5.12
2023-02-24T18:45:44.629Z,5.46
2023-02-24T18:48:10.894Z,6.05
2023-02-24T18:50:37.167Z,5.73
2023-02-24T18:53:03.441Z,6.65
2023-02-24T18:55:29.703Z,6.71
2023-02-24T18:57:55.961Z,6.96
2023-02-24T19:00:22.218Z,6.76
2023-02-24T19:02:48.510Z,7.29
2023-02-24T19:05:14.794Z,7.75
2023-02-24T19:07:41.070Z,8.11
2023-02-24T19:10:07.355Z,7.80
2023-02-24T19:12:33.684Z,8.17
2023-02-24T19:14:59.927Z,7.76
2023-02-24T19:17:26.187Z,7.69
2023-02-24T19:19:52.458Z,8.58
2023-02-24T19:22:18.706Z,8.91
2023-02-24T19:24:44.975Z,9.69
2023-02-24T19:27:11.244Z,9.55
2023-02-24T19:29:37.486Z,9.34
2023-02-24T19:32:03.820Z,8.97
2023-02-24T19:34:30.152Z,8.58
2023-02-24T19:36:56.394Z,8.05
2023-02-24T19:39:22.658Z,6.92
2023-02-24T19:41:49.900Z,5.93
2023-02-24T19:44:16.344Z,5.61
2023-02-24T19:46:42.590Z,5.20
2023-02-24T19:49:08.835Z,4.93
2023-02-24T19:51:35.109Z,4.53
2023-02-24T19:54:01.353Z,4.38
2023-02-24T19:56:27.656Z,4.09
2023-02-24T19:58:53.918Z,4.04
2023-02-24T20:01:20.173Z,4.05
2023-02-24T20:03:46.474Z,4.00
2023-02-24T20:06:12.724Z,3.60
2023-02-24T20:08:38.976Z,3.31
2023-02-24T20:11:05.229Z,3.40
2023-02-24T20:13:31.490Z,3.27
2023-02-24T20:15:57.732Z,3.24
2023-02-24T20:18:24.164Z,3.29
2023-02-24T20:20:50.444Z,3.01
2023-02-24T20:23:16.702Z,3.20
2023-02-24T20:25:43.042Z,3.46
2023-02-24T20:28:09.299Z,3.48
2023-02-24T20:30:35.574Z,3.56
2023-02-24T20:33:01.875Z,3.78
2023-02-24T20:35:28.158Z,3.81
2023-02-24T20:37:54.427Z,3.36
2023-02-24T20:40:20.697Z,2.68
2023-02-24T20:42:46.956Z,2.57
2023-02-24T20:45:13.211Z,2.22
2023-02-24T20:47:39.472Z,1.95
2023-02-24T20:50:05.759Z,1.87
2023-02-24T20:52:32.032Z,1.86
2023-02-24T20:54:58.297Z,1.68
2023-02-24T20:57:24.569Z,1.84
2023-02-24T21:00:02.845Z,1.72
2023-02-24T21:02:29.662Z,1.91
2023-02-24T21:04:55.988Z,1.82
2023-02-24T21:07:22.261Z,1.69
2023-02-24T21:09:48.587Z,1.88
2023-02-24T21:12:14.877Z,1.96
2023-02-24T21:14:41.153Z,1.67
2023-02-24T21:17:07.393Z,1.92
2023-02-24T21:19:33.656Z,1.92
2023-02-24T21:21:59.922Z,1.76
2023-02-24T21:24:26.187Z,1.86
2023-02-24T21:26:52.433Z,1.92
2023-02-24T21:29:18.682Z,1.99
2023-02-24T21:31:45.132Z,2.26
2023-02-24T21:34:11.474Z,2.04
2023-02-24T21:36:37.742Z,2.15
2023-02-24T21:39:04.017Z,2.11
2023-02-24T21:41:30.298Z,2.13
2023-02-24T21:43:56.583Z,1.81
2023-02-24T21:46:23.192Z,1.69
2023-02-24T21:48:49.634Z,1.95
2023-02-24T21:51:15.877Z,1.81
2023-02-24T21:53:42.160Z,1.87
2023-02-24T21:56:08.433Z,1.76
2023-02-24T21:58:34.695Z,1.86
2023-02-24T22:01:00.932Z,1.81
2023-02-24T22:03:27.258Z,1.78
2023-02-24T22:05:53.545Z,1.86
2023-02-24T22:08:19.825Z,1.65
2023-02-24T22:10:46.089Z,1.72
2023-02-24T22:13:12.341Z,1.77
2023-02-24T22:15:38.602Z,1.69
2023-02-24T22:18:04.870Z,1.87
2023-02-24T22:20:31.115Z,1.98
2023-02-24T22:22:57.394Z,2.01
2023-02-24T22:25:23.634Z,2.05
2023-02-24T22:27:49.946Z,2.12
2023-02-24T22:30:16.205Z,2.13
2023-02-24T22:32:42.517Z,2.32
2023-02-24T22:35:08.818Z,2.29
2023-02-24T22:37:35.163Z,2.19
2023-02-24T22:40:01.452Z,2.15
2023-02-24T22:42:27.722Z,2.33
2023-02-24T22:44:53.998Z,2.46
2023-02-24T22:47:20.242Z,2.46
2023-02-24T22:49:46.483Z,2.51
2023-02-24T22:52:12.760Z,2.34
2023-02-24T22:54:39.038Z,2.46
2023-02-24T22:57:05.340Z,2.29
2023-02-24T22:59:31.597Z,2.45
2023-02-24T23:01:57.906Z,2.33
2023-02-24T23:04:24.180Z,2.50
2023-02-24T23:06:50.485Z,2.51
2023-02-24T23:09:16.962Z,2.70
2023-02-24T23:11:43.236Z,2.37
2023-02-24T23:14:09.485Z,2.03
2023-02-24T23:16:35.810Z,2.25
2023-02-24T23:19:02.074Z,1.92
2023-02-24T23:21:28.334Z,2.28
2023-02-24T23:23:54.575Z,2.12
2023-02-24T23:26:21.317Z,2.29
2023-02-24T23:28:47.704Z,2.22
2023-02-24T23:31:14.072Z,2.06
2023-02-24T23:33:40.366Z,2.23
2023-02-24T23:36:06.636Z,2.27
2023-02-24T23:38:32.880Z,2.09
2023-02-24T23:40:59.159Z,2.25
2023-02-24T23:43:25.414Z,2.37
2023-02-24T23:45:51.750Z,2.22
2023-02-24T23:48:18.037Z,2.18
2023-02-24T23:50:44.293Z,2.12
2023-02-24T23:53:10.577Z,2.24
2023-02-24T23:55:36.876Z,2.49
2023-02-24T23:58:03.160Z,2.60
